sensor_id;sensor_type;location;lat;lon;timestamp;pressure;altitude;pressure_sealevel;temperature;humidity
70976;BME280;58635;51.198;6.010;2023-02-28T00:00:43;102831.38;;;4.95;49.10
70976;BME280;58635;51.198;6.010;2023-02-28T00:03:10;102829.75;;;4.94;49.20
70976;BME280;58635;51.198;6.010;2023-02-28T00:05:35;102836.72;;;4.92;49.38
70976;BME280;58635;51.198;6.010;2023-02-28T00:08:01;102831.81;;;4.89;49.70
70976;BME280;58635;51.198;6.010;2023-02-28T00:10:30;102831.94;;;4.88;49.36
70976;BME280;58635;51.198;6.010;2023-02-28T00:12:59;102838.81;;;4.87;49.47
70976;BME280;58635;51.198;6.010;2023-02-28T00:15:26;102836.34;;;4.86;49.42
70976;BME280;58635;51.198;6.010;2023-02-28T00:17:51;102845.75;;;4.85;49.38
70976;BME280;58635;51.198;6.010;2023-02-28T00:20:17;102840.75;;;4.84;49.40
70976;BME280;58635;51.198;6.010;2023-02-28T00:22:44;102833.97;;;4.83;49.46
70976;BME280;58635;51.198;6.010;2023-02-28T00:25:11;102843.53;;;4.81;49.39
70976;BME280;58635;51.198;6.010;2023-02-28T00:27:39;102833.38;;;4.79;49.76
70976;BME280;58635;51.198;6.010;2023-02-28T00:30:06;102836.03;;;4.78;49.73
70976;BME280;58635;51.198;6.010;2023-02-28T00:32:32;102826.81;;;4.75;49.52
70976;BME280;58635;51.198;6.010;2023-02-28T00:34:59;102838.91;;;4.73;50.00
70976;BME280;58635;51.198;6.010;2023-02-28T00:37:25;102833.88;;;4.72;50.06
70976;BME280;58635;51.198;6.010;2023-02-28T00:39:50;102840.88;;;4.69;50.02
70976;BME280;58635;51.198;6.010;2023-02-28T00:42:15;102836.66;;;4.68;49.82
70976;BME280;58635;51.198;6.010;2023-02-28T00:44:41;102845.28;;;4.67;49.77
70976;BME280;58635;51.198;6.010;2023-02-28T00:47:06;102836.88;;;4.65;49.94
70976;BME280;58635;51.198;6.010;2023-02-28T00:49:32;102850.63;;;4.64;50.13
70976;BME280;58635;51.198;6.010;2023-02-28T00:51:57;102844.69;;;4.64;50.10
70976;BME280;58635;51.198;6.010;2023-02-28T00:54:23;102855.94;;;4.61;50.48
70976;BME280;58635;51.198;6.010;2023-02-28T00:56:49;102846.59;;;4.60;50.23
70976;BME280;58635;51.198;6.010;2023-02-28T00:59:16;102849.28;;;4.59;50.29
70976;BME280;58635;51.198;6.010;2023-02-28T01:01:43;102854.50;;;4.57;50.22
70976;BME280;58635;51.198;6.010;2023-02-28T01:04:09;102851.22;;;4.55;50.73
70976;BME280;58635;51.198;6.010;2023-02-28T01:06:34;102852.25;;;4.53;50.37
70976;BME280;58635;51.198;6.010;2023-02-28T01:09:01;102853.31;;;4.50;50.40
70976;BME280;58635;51.198;6.010;2023-02-28T01:11:26;102854.31;;;4.48;50.30
70976;BME280;58635;51.198;6.010;2023-02-28T01:13:52;102854.41;;;4.46;50.60
70976;BME280;58635;51.198;6.010;2023-02-28T01:16:17;102851.94;;;4.45;50.38
70976;BME280;58635;51.198;6.010;2023-02-28T01:18:43;102861.38;;;4.44;50.42
70976;BME280;58635;51.198;6.010;2023-02-28T01:21:11;102855.53;;;4.42;50.60
70976;BME280;58635;51.198;6.010;2023-02-28T01:23:38;102854.84;;;4.40;50.83
70976;BME280;58635;51.198;6.010;2023-02-28T01:26:15;102861.78;;;4.38;50.79
70976;BME280;58635;51.198;6.010;2023-02-28T01:28:41;102855.13;;;4.35;50.65
70976;BME280;58635;51.198;6.010;2023-02-28T01:31:06;102858.72;;;4.33;50.95
70976;BME280;58635;51.198;6.010;2023-02-28T01:33:32;102860.56;;;4.31;50.97
70976;BME280;58635;51.198;6.010;2023-02-28T01:36:06;102863.31;;;4.28;50.82
70976;BME280;58635;51.198;6.010;2023-02-28T01:38:33;102858.38;;;4.25;50.90
70976;BME280;58635;51.198;6.010;2023-02-28T01:40:59;102860.22;;;4.23;50.93
70976;BME280;58635;51.198;6.010;2023-02-28T01:43:27;102855.22;;;4.21;51.11
70976;BME280;58635;51.198;6.010;2023-02-28T01:45:55;102850.19;;;4.20;50.69
70976;BME280;58635;51.198;6.010;2023-02-28T01:48:25;102850.19;;;4.20;50.87
70976;BME280;58635;51.198;6.010;2023-02-28T01:50:52;102849.47;;;4.18;51.08
70976;BME280;58635;51.198;6.010;2023-02-28T01:53:23;102843.44;;;4.19;50.88
70976;BME280;58635;51.198;6.010;2023-02-28T01:55:52;102844.34;;;4.18;51.25
70976;BME280;58635;51.198;6.010;2023-02-28T01:58:20;102839.34;;;4.16;51.05
70976;BME280;58635;51.198;6.010;2023-02-28T02:00:46;102842.00;;;4.15;50.82
70976;BME280;58635;51.198;6.010;2023-02-28T02:03:17;102834.41;;;4.13;51.16
70976;BME280;58635;51.198;6.010;2023-02-28T02:05:46;102826.94;;;4.10;50.98
70976;BME280;58635;51.198;6.010;2023-02-28T02:08:22;102823.53;;;4.09;51.14
70976;BME280;58635;51.198;6.010;2023-02-28T02:10:56;102828.06;;;4.06;51.32
70976;BME280;58635;51.198;6.010;2023-02-28T02:36:52;102819.22;;;3.85;51.80
70976;BME280;58635;51.198;6.010;2023-02-28T02:42:18;102812.56;;;3.82;51.60
70976;BME280;58635;51.198;6.010;2023-02-28T02:44:56;102812.56;;;3.82;51.86
70976;BME280;58635;51.198;6.010;2023-02-28T02:47:26;102816.03;;;3.81;52.15
70976;BME280;58635;51.198;6.010;2023-02-28T02:49:55;102815.13;;;3.82;51.79
70976;BME280;58635;51.198;6.010;2023-02-28T02:52:25;102818.59;;;3.81;51.75
70976;BME280;58635;51.198;6.010;2023-02-28T02:54:55;102811.03;;;3.79;51.89
70976;BME280;58635;51.198;6.010;2023-02-28T02:57:31;102816.31;;;3.76;51.75
70976;BME280;58635;51.198;6.010;2023-02-28T03:00:00;102818.88;;;3.76;52.07
70976;BME280;58635;51.198;6.010;2023-02-28T03:02:29;102822.34;;;3.75;52.05
70976;BME280;58635;51.198;6.010;2023-02-28T03:05:02;102819.06;;;3.73;52.06
70976;BME280;58635;51.198;6.010;2023-02-28T03:07:29;102820.91;;;3.71;51.85
70976;BME280;58635;51.198;6.010;2023-02-28T03:09:56;102820.19;;;3.69;51.97
70976;BME280;58635;51.198;6.010;2023-02-28T03:12:40;102817.81;;;3.66;51.84
70976;BME280;58635;51.198;6.010;2023-02-28T03:15:24;102817.00;;;3.66;51.80
70976;BME280;58635;51.198;6.010;2023-02-28T03:20:36;102818.13;;;3.62;51.99
70976;BME280;58635;51.198;6.010;2023-02-28T03:23:15;102818.22;;;3.60;52.08
70976;BME280;58635;51.198;6.010;2023-02-28T03:31:15;102823.72;;;3.54;52.12
70976;BME280;58635;51.198;6.010;2023-02-28T03:33:47;102818.59;;;3.54;52.52
70976;BME280;58635;51.198;6.010;2023-02-28T03:36:22;102821.25;;;3.52;52.21
70976;BME280;58635;51.198;6.010;2023-02-28T03:38:53;102822.19;;;3.51;52.55
70976;BME280;58635;51.198;6.010;2023-02-28T03:41:27;102815.41;;;3.50;52.39
70976;BME280;58635;51.198;6.010;2023-02-28T03:44:04;102820.66;;;3.49;52.55
70976;BME280;58635;51.198;6.010;2023-02-28T03:46:36;102808.97;;;3.45;52.28
70976;BME280;58635;51.198;6.010;2023-02-28T03:49:16;102811.63;;;3.43;52.15
70976;BME280;58635;51.198;6.010;2023-02-28T03:51:46;102814.34;;;3.40;52.25
70976;BME280;58635;51.198;6.010;2023-02-28T03:54:17;102810.97;;;3.40;52.37
70976;BME280;58635;51.198;6.010;2023-02-28T03:56:50;102807.72;;;3.38;52.40
70976;BME280;58635;51.198;6.010;2023-02-28T03:59:43;102811.09;;;3.38;52.28
70976;BME280;58635;51.198;6.010;2023-02-28T04:02:09;102811.19;;;3.37;52.39
70976;BME280;58635;51.198;6.010;2023-02-28T04:04:35;102806.06;;;3.37;52.52
70976;BME280;58635;51.198;6.010;2023-02-28T04:07:03;102807.09;;;3.34;52.67
70976;BME280;58635;51.198;6.010;2023-02-28T04:09:29;102808.94;;;3.32;52.63
70976;BME280;58635;51.198;6.010;2023-02-28T04:11:54;102814.09;;;3.31;52.38
70976;BME280;58635;51.198;6.010;2023-02-28T04:14:21;102816.78;;;3.29;52.47
70976;BME280;58635;51.198;6.010;2023-02-28T04:16:47;102814.31;;;3.28;52.49
70976;BME280;58635;51.198;6.010;2023-02-28T04:19:14;102814.41;;;3.26;52.38
70976;BME280;58635;51.198;6.010;2023-02-28T04:21:52;102818.91;;;3.22;52.57
70976;BME280;58635;51.198;6.010;2023-02-28T04:24:23;102819.91;;;3.20;52.44
70976;BME280;58635;51.198;6.010;2023-02-28T04:26:52;102820.09;;;3.17;52.46
70976;BME280;58635;51.198;6.010;2023-02-28T04:29:21;102822.75;;;3.15;52.62
70976;BME280;58635;51.198;6.010;2023-02-28T04:31:46;102817.72;;;3.14;52.74
70976;BME280;58635;51.198;6.010;2023-02-28T04:34:12;102820.28;;;3.14;52.55
70976;BME280;58635;51.198;6.010;2023-02-28T04:36:37;102816.91;;;3.13;52.55
70976;BME280;58635;51.198;6.010;2023-02-28T04:39:03;102821.31;;;3.11;52.60
70976;BME280;58635;51.198;6.010;2023-02-28T04:41:29;102825.59;;;3.11;52.84
70976;BME280;58635;51.198;6.010;2023-02-28T04:43:54;102827.44;;;3.09;52.62
70976;BME280;58635;51.198;6.010;2023-02-28T04:46:21;102827.50;;;3.07;52.71
70976;BME280;58635;51.198;6.010;2023-02-28T04:48:47;102828.41;;;3.06;52.59
70976;BME280;58635;51.198;6.010;2023-02-28T04:51:14;102830.16;;;3.06;52.58
70976;BME280;58635;51.198;6.010;2023-02-28T04:53:41;102822.59;;;3.04;52.79
70976;BME280;58635;51.198;6.010;2023-02-28T04:56:08;102826.06;;;3.03;52.89
70976;BME280;58635;51.198;6.010;2023-02-28T04:58:35;102823.59;;;3.02;53.01
70976;BME280;58635;51.198;6.010;2023-02-28T05:01:02;102816.84;;;3.01;53.19
70976;BME280;58635;51.198;6.010;2023-02-28T05:03:28;102825.53;;;2.98;52.88
70976;BME280;58635;51.198;6.010;2023-02-28T05:05:53;102829.81;;;2.98;52.86
70976;BME280;58635;51.198;6.010;2023-02-28T05:08:19;102829.00;;;2.97;52.99
70976;BME280;58635;51.198;6.010;2023-02-28T05:10:44;102830.75;;;2.97;52.88
70976;BME280;58635;51.198;6.010;2023-02-28T05:13:12;102829.91;;;2.96;52.83
70976;BME280;58635;51.198;6.010;2023-02-28T05:15:37;102835.03;;;2.96;52.92
70976;BME280;58635;51.198;6.010;2023-02-28T05:18:03;102835.75;;;2.98;53.04
70976;BME280;58635;51.198;6.010;2023-02-28T05:20:28;102833.19;;;2.98;52.77
70976;BME280;58635;51.198;6.010;2023-02-28T05:22:54;102833.19;;;2.98;52.75
70976;BME280;58635;51.198;6.010;2023-02-28T05:25:20;102831.56;;;2.97;52.84
70976;BME280;58635;51.198;6.010;2023-02-28T05:27:47;102836.56;;;2.99;52.84
70976;BME280;58635;51.198;6.010;2023-02-28T05:30:13;102837.38;;;2.99;52.82
70976;BME280;58635;51.198;6.010;2023-02-28T05:32:40;102826.34;;;2.99;53.06
70976;BME280;58635;51.198;6.010;2023-02-28T05:35:12;102828.25;;;2.95;53.07
70976;BME280;58635;51.198;6.010;2023-02-28T05:37:38;102831.63;;;2.96;53.04
70976;BME280;58635;51.198;6.010;2023-02-28T05:40:05;102836.72;;;2.96;52.83
70976;BME280;58635;51.198;6.010;2023-02-28T05:42:37;102834.38;;;2.92;52.54
70976;BME280;58635;51.198;6.010;2023-02-28T05:45:06;102842.13;;;2.91;52.65
70976;BME280;58635;51.198;6.010;2023-02-28T05:47:32;102845.72;;;2.88;52.71
70976;BME280;58635;51.198;6.010;2023-02-28T05:49:57;102840.59;;;2.88;52.79
70976;BME280;58635;51.198;6.010;2023-02-28T05:52:23;102847.44;;;2.88;52.85
70976;BME280;58635;51.198;6.010;2023-02-28T05:54:49;102844.06;;;2.87;52.65
70976;BME280;58635;51.198;6.010;2023-02-28T05:57:15;102848.34;;;2.87;52.65
70976;BME280;58635;51.198;6.010;2023-02-28T05:59:40;102844.16;;;2.86;52.74
70976;BME280;58635;51.198;6.010;2023-02-28T06:02:10;102845.97;;;2.84;52.59
70976;BME280;58635;51.198;6.010;2023-02-28T06:04:37;102847.78;;;2.82;52.60
70976;BME280;58635;51.198;6.010;2023-02-28T06:07:02;102849.63;;;2.80;52.38
70976;BME280;58635;51.198;6.010;2023-02-28T06:09:28;102851.38;;;2.79;52.46
70976;BME280;58635;51.198;6.010;2023-02-28T06:11:54;102855.56;;;2.80;52.58
70976;BME280;58635;51.198;6.010;2023-02-28T06:14:20;102858.94;;;2.81;52.41
70976;BME280;58635;51.198;6.010;2023-02-28T06:16:46;102860.75;;;2.79;52.76
70976;BME280;58635;51.198;6.010;2023-02-28T06:19:12;102864.13;;;2.79;52.58
70976;BME280;58635;51.198;6.010;2023-02-28T06:21:38;102860.75;;;2.79;52.67
70976;BME280;58635;51.198;6.010;2023-02-28T06:24:04;102865.16;;;2.77;52.57
70976;BME280;58635;51.198;6.010;2023-02-28T06:26:29;102866.78;;;2.78;52.51
70976;BME280;58635;51.198;6.010;2023-02-28T06:28:55;102865.97;;;2.77;52.56
70976;BME280;58635;51.198;6.010;2023-02-28T06:31:20;102868.53;;;2.77;52.48
70976;BME280;58635;51.198;6.010;2023-02-28T06:33:46;102872.91;;;2.75;52.58
70976;BME280;58635;51.198;6.010;2023-02-28T06:36:14;102870.34;;;2.75;52.28
70976;BME280;58635;51.198;6.010;2023-02-28T06:38:40;102877.19;;;2.75;52.35
70976;BME280;58635;51.198;6.010;2023-02-28T06:41:07;102867.13;;;2.72;52.66
70976;BME280;58635;51.198;6.010;2023-02-28T06:43:36;102870.59;;;2.71;52.39
70976;BME280;58635;51.198;6.010;2023-02-28T06:46:04;102882.56;;;2.70;52.27
70976;BME280;58635;51.198;6.010;2023-02-28T06:48:29;102870.06;;;2.66;52.07
70976;BME280;58635;51.198;6.010;2023-02-28T06:51:07;102881.75;;;2.70;52.27
70976;BME280;58635;51.198;6.010;2023-02-28T06:53:33;102876.72;;;2.68;52.22
70976;BME280;58635;51.198;6.010;2023-02-28T06:55:59;102884.28;;;2.70;52.55
70976;BME280;58635;51.198;6.010;2023-02-28T06:58:25;102895.09;;;2.75;52.49
70976;BME280;58635;51.198;6.010;2023-02-28T07:00:51;102896.44;;;2.80;52.53
70976;BME280;58635;51.198;6.010;2023-02-28T07:03:17;102892.06;;;2.82;52.30
70976;BME280;58635;51.198;6.010;2023-02-28T07:05:44;102899.56;;;2.85;52.38
70976;BME280;58635;51.198;6.010;2023-02-28T07:08:10;102900.28;;;2.87;52.14
70976;BME280;58635;51.198;6.010;2023-02-28T07:10:39;102904.50;;;2.88;52.28
70976;BME280;58635;51.198;6.010;2023-02-28T07:13:05;102909.50;;;2.90;52.30
70976;BME280;58635;51.198;6.010;2023-02-28T07:15:31;102906.75;;;2.93;52.32
70976;BME280;58635;51.198;6.010;2023-02-28T07:17:56;102902.38;;;2.95;52.16
70976;BME280;58635;51.198;6.010;2023-02-28T07:20:23;102902.94;;;3.00;52.03
70976;BME280;58635;51.198;6.010;2023-02-28T07:22:49;102906.13;;;3.04;52.12
70976;BME280;58635;51.198;6.010;2023-02-28T07:25:21;102901.63;;;3.07;51.98
70976;BME280;58635;51.198;6.010;2023-02-28T07:27:47;102904.84;;;3.11;52.00
70976;BME280;58635;51.198;6.010;2023-02-28T07:30:12;102908.84;;;3.15;51.89
70976;BME280;58635;51.198;6.010;2023-02-28T07:32:38;102900.16;;;3.17;51.75
70976;BME280;58635;51.198;6.010;2023-02-28T07:35:03;102906.75;;;3.21;51.65
70976;BME280;58635;51.198;6.010;2023-02-28T07:37:32;102910.66;;;3.27;51.59
70976;BME280;58635;51.198;6.010;2023-02-28T07:40:06;102907.91;;;3.30;51.82
70976;BME280;58635;51.198;6.010;2023-02-28T07:42:34;102913.59;;;3.35;51.74
70976;BME280;58635;51.198;6.010;2023-02-28T07:45:00;102905.81;;;3.37;51.59
70976;BME280;58635;51.198;6.010;2023-02-28T07:47:26;102920.06;;;3.41;51.43
70976;BME280;58635;51.198;6.010;2023-02-28T07:49:51;102912.22;;;3.44;51.51
70976;BME280;58635;51.198;6.010;2023-02-28T07:52:16;102909.47;;;3.47;51.60
70976;BME280;58635;51.198;6.010;2023-02-28T07:54:42;102908.53;;;3.48;51.36
70976;BME280;58635;51.198;6.010;2023-02-28T07:57:07;102907.31;;;3.53;51.34
70976;BME280;58635;51.198;6.010;2023-02-28T07:59:33;102917.19;;;3.60;51.33
70976;BME280;58635;51.198;6.010;2023-02-28T08:01:58;102915.97;;;3.65;51.22
70976;BME280;58635;51.198;6.010;2023-02-28T08:04:24;102920.72;;;3.71;51.52
70976;BME280;58635;51.198;6.010;2023-02-28T08:06:49;102921.16;;;3.78;50.99
70976;BME280;58635;51.198;6.010;2023-02-28T08:09:17;102924.16;;;3.85;51.08
70976;BME280;58635;51.198;6.010;2023-02-28T08:11:42;102922.22;;;3.88;51.09
70976;BME280;58635;51.198;6.010;2023-02-28T08:14:08;102927.06;;;3.93;50.91
70976;BME280;58635;51.198;6.010;2023-02-28T08:16:33;102927.78;;;3.95;50.71
70976;BME280;58635;51.198;6.010;2023-02-28T08:18:58;102930.34;;;3.95;50.85
70976;BME280;58635;51.198;6.010;2023-02-28T08:21:24;102926.66;;;3.99;50.37
70976;BME280;58635;51.198;6.010;2023-02-28T08:23:50;102922.34;;;3.99;50.04
70976;BME280;58635;51.198;6.010;2023-02-28T08:26:17;102925.75;;;4.00;49.75
70976;BME280;58635;51.198;6.010;2023-02-28T08:28:42;102935.72;;;4.04;49.97
70976;BME280;58635;51.198;6.010;2023-02-28T08:31:11;102932.03;;;4.08;50.07
70976;BME280;58635;51.198;6.010;2023-02-28T08:33:37;102930.06;;;4.12;49.73
70976;BME280;58635;51.198;6.010;2023-02-28T08:36:05;102929.91;;;4.15;49.24
70976;BME280;58635;51.198;6.010;2023-02-28T08:38:30;102926.41;;;4.16;48.95
70976;BME280;58635;51.198;6.010;2023-02-28T08:41:02;102935.44;;;4.22;48.84
70976;BME280;58635;51.198;6.010;2023-02-28T08:43:28;102931.84;;;4.24;48.68
70976;BME280;58635;51.198;6.010;2023-02-28T08:45:55;102929.72;;;4.31;48.38
70976;BME280;58635;51.198;6.010;2023-02-28T08:48:25;102924.28;;;4.35;47.91
70976;BME280;58635;51.198;6.010;2023-02-28T08:51:05;102921.44;;;4.40;47.46
70976;BME280;58635;51.198;6.010;2023-02-28T08:53:32;102921.25;;;4.43;46.90
70976;BME280;58635;51.198;6.010;2023-02-28T08:56:06;102916.50;;;4.50;47.05
70976;BME280;58635;51.198;6.010;2023-02-28T08:58:32;102918.59;;;4.57;46.77
70976;BME280;58635;51.198;6.010;2023-02-28T09:00:59;102919.00;;;4.64;46.32
70976;BME280;58635;51.198;6.010;2023-02-28T09:03:25;102915.19;;;4.69;46.05
70976;BME280;58635;51.198;6.010;2023-02-28T09:06:01;102905.38;;;4.76;45.66
70976;BME280;58635;51.198;6.010;2023-02-28T09:08:29;102905.75;;;4.83;45.47
70976;BME280;58635;51.198;6.010;2023-02-28T09:10:56;102909.56;;;4.90;45.60
70976;BME280;58635;51.198;6.010;2023-02-28T09:13:26;102920.22;;;4.96;44.81
70976;BME280;58635;51.198;6.010;2023-02-28T09:15:53;102920.72;;;5.02;44.66
70976;BME280;58635;51.198;6.010;2023-02-28T09:18:19;102909.97;;;5.09;44.62
70976;BME280;58635;51.198;6.010;2023-02-28T09:20:45;102908.22;;;5.10;43.44
70976;BME280;58635;51.198;6.010;2023-02-28T09:23:12;102909.63;;;5.14;43.28
70976;BME280;58635;51.198;6.010;2023-02-28T09:25:38;102907.38;;;5.22;43.38
70976;BME280;58635;51.198;6.010;2023-02-28T09:28:11;102908.78;;;5.26;42.47
70976;BME280;58635;51.198;6.010;2023-02-28T09:30:41;102910.31;;;5.28;42.37
70976;BME280;58635;51.198;6.010;2023-02-28T09:33:07;102910.91;;;5.32;42.17
70976;BME280;58635;51.198;6.010;2023-02-28T09:35:32;102907.00;;;5.39;42.00
70976;BME280;58635;51.198;6.010;2023-02-28T09:37:57;102896.63;;;5.41;41.31
70976;BME280;58635;51.198;6.010;2023-02-28T09:40:24;102900.53;;;5.46;41.39
70976;BME280;58635;51.198;6.010;2023-02-28T09:42:55;102898.44;;;5.51;41.14
70976;BME280;58635;51.198;6.010;2023-02-28T09:45:42;102895.47;;;5.57;41.11
70976;BME280;58635;51.198;6.010;2023-02-28T09:48:21;102894.06;;;5.65;40.84
70976;BME280;58635;51.198;6.010;2023-02-28T09:50:52;102890.16;;;5.72;40.86
70976;BME280;58635;51.198;6.010;2023-02-28T09:53:35;102889.50;;;5.81;40.24
70976;BME280;58635;51.198;6.010;2023-02-28T10:01:37;102887.19;;;5.89;38.77
70976;BME280;58635;51.198;6.010;2023-02-28T10:07:21;102892.84;;;5.94;37.24
70976;BME280;58635;51.198;6.010;2023-02-28T10:09:52;102892.03;;;5.94;37.21
70976;BME280;58635;51.198;6.010;2023-02-28T10:12:19;102889.13;;;5.98;37.08
70976;BME280;58635;51.198;6.010;2023-02-28T10:14:47;102899.28;;;6.00;36.63
70976;BME280;58635;51.198;6.010;2023-02-28T10:17:17;102895.34;;;6.07;37.37
70976;BME280;58635;51.198;6.010;2023-02-28T10:20:07;102888.94;;;6.12;37.00
70976;BME280;58635;51.198;6.010;2023-02-28T10:22:53;102884.28;;;6.18;36.72
70976;BME280;58635;51.198;6.010;2023-02-28T10:25:25;102882.41;;;6.20;36.68
70976;BME280;58635;51.198;6.010;2023-02-28T10:27:58;102888.84;;;6.25;37.01
70976;BME280;58635;51.198;6.010;2023-02-28T10:30:26;102894.38;;;6.32;36.82
70976;BME280;58635;51.198;6.010;2023-02-28T10:32:51;102888.88;;;6.36;36.27
70976;BME280;58635;51.198;6.010;2023-02-28T10:35:22;102888.66;;;6.39;36.25
70976;BME280;58635;51.198;6.010;2023-02-28T10:37:57;102887.94;;;6.49;35.87
70976;BME280;58635;51.198;6.010;2023-02-28T10:45:19;102890.66;;;6.69;36.05
70976;BME280;58635;51.198;6.010;2023-02-28T10:47:57;102881.78;;;6.73;36.14
70976;BME280;58635;51.198;6.010;2023-02-28T10:55:35;102882.25;;;6.90;36.16
70976;BME280;58635;51.198;6.010;2023-02-28T10:58:00;102873.94;;;6.97;36.19
70976;BME280;58635;51.198;6.010;2023-02-28T11:00:32;102869.28;;;7.02;35.41
70976;BME280;58635;51.198;6.010;2023-02-28T11:02:58;102877.44;;;6.96;35.34
70976;BME280;58635;51.198;6.010;2023-02-28T11:05:25;102868.91;;;6.96;35.88
70976;BME280;58635;51.198;6.010;2023-02-28T11:07:56;102865.88;;;7.02;35.94
70976;BME280;58635;51.198;6.010;2023-02-28T11:10:25;102865.41;;;7.08;35.69
70976;BME280;58635;51.198;6.010;2023-02-28T11:12:55;102864.94;;;7.03;35.23
70976;BME280;58635;51.198;6.010;2023-02-28T11:20:48;102871.13;;;7.12;35.61
70976;BME280;58635;51.198;6.010;2023-02-28T11:23:15;102872.41;;;7.17;35.55
70976;BME280;58635;51.198;6.010;2023-02-28T11:25:54;102865.16;;;7.22;35.62
70976;BME280;58635;51.198;6.010;2023-02-28T11:28:38;102870.88;;;7.26;34.99
70976;BME280;58635;51.198;6.010;2023-02-28T11:33:52;102853.31;;;7.20;35.02
70976;BME280;58635;51.198;6.010;2023-02-28T11:36:23;102856.97;;;7.17;34.99
70976;BME280;58635;51.198;6.010;2023-02-28T11:39:11;102846.66;;;7.17;35.16
70976;BME280;58635;51.198;6.010;2023-02-28T11:42:08;102846.19;;;7.23;34.94
70976;BME280;58635;51.198;6.010;2023-02-28T11:47:38;102846.06;;;7.25;35.21
70976;BME280;58635;51.198;6.010;2023-02-28T11:50:21;102841.75;;;7.25;34.96
70976;BME280;58635;51.198;6.010;2023-02-28T11:52:52;102836.47;;;7.27;35.09
70976;BME280;58635;51.198;6.010;2023-02-28T11:58:27;102845.53;;;7.42;35.07
70976;BME280;58635;51.198;6.010;2023-02-28T12:01:09;102850.34;;;7.47;34.81
70976;BME280;58635;51.198;6.010;2023-02-28T12:06:45;102836.66;;;7.46;34.42
70976;BME280;58635;51.198;6.010;2023-02-28T12:23:02;102844.03;;;7.92;34.56
70976;BME280;58635;51.198;6.010;2023-02-28T12:25:51;102838.13;;;8.02;34.30
70976;BME280;58635;51.198;6.010;2023-02-28T12:28:26;102843.16;;;8.03;34.17
70976;BME280;58635;51.198;6.010;2023-02-28T12:30:58;102843.44;;;8.00;33.96
70976;BME280;58635;51.198;6.010;2023-02-28T12:33:31;102832.81;;;7.94;33.85
70976;BME280;58635;51.198;6.010;2023-02-28T12:35:59;102832.91;;;7.92;34.35
70976;BME280;58635;51.198;6.010;2023-02-28T12:38:29;102826.19;;;8.01;34.21
70976;BME280;58635;51.198;6.010;2023-02-28T12:43:44;102824.78;;;8.08;34.06
70976;BME280;58635;51.198;6.010;2023-02-28T12:46:21;102820.28;;;8.10;34.18
70976;BME280;58635;51.198;6.010;2023-02-28T12:48:53;102813.81;;;8.15;33.86
70976;BME280;58635;51.198;6.010;2023-02-28T12:51:23;102808.16;;;8.21;34.10
70976;BME280;58635;51.198;6.010;2023-02-28T12:59:24;102795.19;;;8.33;33.98
70976;BME280;58635;51.198;6.010;2023-02-28T13:08:10;102795.84;;;8.56;33.86
70976;BME280;58635;51.198;6.010;2023-02-28T13:10:10;102792.31;;;8.57;33.83
70976;BME280;58635;51.198;6.010;2023-02-28T13:12:36;102773.81;;;8.52;33.67
70976;BME280;58635;51.198;6.010;2023-02-28T13:17:41;102780.06;;;8.49;33.65
70976;BME280;58635;51.198;6.010;2023-02-28T13:20:21;102769.09;;;8.57;33.55
70976;BME280;58635;51.198;6.010;2023-02-28T13:22:49;102770.09;;;8.65;33.58
70976;BME280;58635;51.198;6.010;2023-02-28T13:27:58;102771.03;;;8.74;33.79
70976;BME280;58635;51.198;6.010;2023-02-28T13:35:45;102765.88;;;8.74;33.44
70976;BME280;58635;51.198;6.010;2023-02-28T13:38:41;102762.91;;;8.78;33.31
70976;BME280;58635;51.198;6.010;2023-02-28T13:44:14;102757.66;;;8.90;33.22
70976;BME280;58635;51.198;6.010;2023-02-28T13:52:31;102762.00;;;8.89;33.40
70976;BME280;58635;51.198;6.010;2023-02-28T14:11:36;102743.81;;;9.00;32.79
70976;BME280;58635;51.198;6.010;2023-02-28T14:14:03;102738.06;;;8.97;32.89
70976;BME280;58635;51.198;6.010;2023-02-28T14:19:23;102735.78;;;9.03;33.09
70976;BME280;58635;51.198;6.010;2023-02-28T14:22:09;102734.84;;;9.04;33.04
70976;BME280;58635;51.198;6.010;2023-02-28T14:24:59;102736.59;;;9.04;33.42
70976;BME280;58635;51.198;6.010;2023-02-28T14:27:58;102740.53;;;9.08;33.47
70976;BME280;58635;51.198;6.010;2023-02-28T14:33:38;102734.00;;;8.94;33.14
70976;BME280;58635;51.198;6.010;2023-02-28T14:36:12;102732.78;;;8.89;32.99
70976;BME280;58635;51.198;6.010;2023-02-28T14:41:20;102728.69;;;8.86;33.34
70976;BME280;58635;51.198;6.010;2023-02-28T14:43:52;102719.88;;;8.89;33.45
70976;BME280;58635;51.198;6.010;2023-02-28T14:46:18;102724.34;;;8.87;33.47
70976;BME280;58635;51.198;6.010;2023-02-28T14:48:46;102722.19;;;8.82;33.28
70976;BME280;58635;51.198;6.010;2023-02-28T14:51:12;102722.31;;;8.81;33.31
70976;BME280;58635;51.198;6.010;2023-02-28T14:53:43;102718.38;;;8.76;33.16
70976;BME280;58635;51.198;6.010;2023-02-28T14:56:27;102723.78;;;8.73;33.24
70976;BME280;58635;51.198;6.010;2023-02-28T14:58:55;102722.03;;;8.74;33.50
70976;BME280;58635;51.198;6.010;2023-02-28T15:01:22;102721.06;;;8.75;33.42
70976;BME280;58635;51.198;6.010;2023-02-28T15:03:57;102719.56;;;8.72;33.13
70976;BME280;58635;51.198;6.010;2023-02-28T15:06:22;102719.31;;;8.66;33.37
70976;BME280;58635;51.198;6.010;2023-02-28T15:09:06;102715.66;;;8.68;33.47
70976;BME280;58635;51.198;6.010;2023-02-28T15:11:33;102715.50;;;8.70;33.74
70976;BME280;58635;51.198;6.010;2023-02-28T15:13:58;102711.03;;;8.72;33.87
70976;BME280;58635;51.198;6.010;2023-02-28T15:16:30;102704.22;;;8.71;33.78
70976;BME280;58635;51.198;6.010;2023-02-28T15:19:01;102713.59;;;8.72;33.43
70976;BME280;58635;51.198;6.010;2023-02-28T15:21:31;102712.38;;;8.66;33.47
70976;BME280;58635;51.198;6.010;2023-02-28T15:24:21;102707.38;;;8.65;33.49
70976;BME280;58635;51.198;6.010;2023-02-28T15:27:03;102704.50;;;8.68;33.83
70976;BME280;58635;51.198;6.010;2023-02-28T15:29:33;102704.66;;;8.66;34.14
70976;BME280;58635;51.198;6.010;2023-02-28T15:32:03;102705.47;;;8.67;33.85
70976;BME280;58635;51.198;6.010;2023-02-28T15:34:43;102709.00;;;8.66;33.85